sensor_id;sensor_type;location;lat;lon;timestamp;P1;durP1;ratioP1;P2;durP2;ratioP2
7166;SDS011;3625;51.762;14.320;2023-07-29T00:00:38;6.15;;;5.65;;
7166;SDS011;3625;51.762;14.320;2023-07-29T00:03:07;6.30;;;5.75;;
7166;SDS011;3625;51.762;14.320;2023-07-29T00:05:36;6.70;;;6.20;;
7166;SDS011;3625;51.762;14.320;2023-07-29T00:08:09;6.85;;;6.25;;
7166;SDS011;3625;51.762;14.320;2023-07-29T00:10:37;6.72;;;6.10;;
7166;SDS011;3625;51.762;14.320;2023-07-29T00:13:06;6.50;;;6.00;;
7166;SDS011;3625;51.762;14.320;2023-07-29T00:15:35;7.05;;;6.40;;
7166;SDS011;3625;51.762;14.320;2023-07-29T00:18:03;7.30;;;6.65;;
7166;SDS011;3625;51.762;14.320;2023-07-29T00:20:35;6.55;;;5.95;;
7166;SDS011;3625;51.762;14.320;2023-07-29T00:23:04;6.55;;;6.05;;
7166;SDS011;3625;51.762;14.320;2023-07-29T00:25:36;7.53;;;6.93;;
7166;SDS011;3625;51.762;14.320;2023-07-29T00:28:05;7.18;;;6.60;;
7166;SDS011;3625;51.762;14.320;2023-07-29T00:30:43;7.45;;;6.85;;
7166;SDS011;3625;51.762;14.320;2023-07-29T00:33:12;6.53;;;6.03;;
7166;SDS011;3625;51.762;14.320;2023-07-29T00:35:40;6.70;;;6.20;;
7166;SDS011;3625;51.762;14.320;2023-07-29T00:38:12;7.13;;;6.43;;
7166;SDS011;3625;51.762;14.320;2023-07-29T00:40:44;6.90;;;6.30;;
7166;SDS011;3625;51.762;14.320;2023-07-29T00:43:14;6.53;;;6.03;;
7166;SDS011;3625;51.762;14.320;2023-07-29T00:45:43;6.43;;;5.88;;
7166;SDS011;3625;51.762;14.320;2023-07-29T00:48:24;7.20;;;6.50;;
7166;SDS011;3625;51.762;14.320;2023-07-29T00:50:56;6.47;;;5.97;;
7166;SDS011;3625;51.762;14.320;2023-07-29T00:53:28;5.70;;;5.22;;
7166;SDS011;3625;51.762;14.320;2023-07-29T00:55:58;6.50;;;5.90;;
7166;SDS011;3625;51.762;14.320;2023-07-29T00:58:29;6.20;;;5.70;;
7166;SDS011;3625;51.762;14.320;2023-07-29T01:00:58;5.47;;;5.07;;
7166;SDS011;3625;51.762;14.320;2023-07-29T01:03:28;6.32;;;5.82;;
7166;SDS011;3625;51.762;14.320;2023-07-29T01:06:01;5.43;;;5.00;;
7166;SDS011;3625;51.762;14.320;2023-07-29T01:08:50;6.40;;;5.85;;
7166;SDS011;3625;51.762;14.320;2023-07-29T01:11:37;5.90;;;5.40;;
7166;SDS011;3625;51.762;14.320;2023-07-29T01:14:39;5.75;;;5.35;;
7166;SDS011;3625;51.762;14.320;2023-07-29T01:17:46;5.93;;;5.43;;
7166;SDS011;3625;51.762;14.320;2023-07-29T01:20:20;6.18;;;5.68;;
7166;SDS011;3625;51.762;14.320;2023-07-29T01:22:54;6.43;;;5.93;;
7166;SDS011;3625;51.762;14.320;2023-07-29T01:25:26;6.50;;;5.90;;
7166;SDS011;3625;51.762;14.320;2023-07-29T01:27:58;6.43;;;5.85;;
7166;SDS011;3625;51.762;14.320;2023-07-29T01:30:29;5.88;;;5.40;;
7166;SDS011;3625;51.762;14.320;2023-07-29T01:33:09;6.35;;;5.85;;
7166;SDS011;3625;51.762;14.320;2023-07-29T01:35:46;5.95;;;5.50;;
7166;SDS011;3625;51.762;14.320;2023-07-29T01:38:28;5.82;;;5.38;;
7166;SDS011;3625;51.762;14.320;2023-07-29T01:41:19;5.88;;;5.47;;
7166;SDS011;3625;51.762;14.320;2023-07-29T01:44:21;6.43;;;5.93;;
7166;SDS011;3625;51.762;14.320;2023-07-29T01:46:55;6.65;;;5.97;;
7166;SDS011;3625;51.762;14.320;2023-07-29T01:49:29;6.60;;;6.00;;
7166;SDS011;3625;51.762;14.320;2023-07-29T01:51:58;6.53;;;5.93;;
7166;SDS011;3625;51.762;14.320;2023-07-29T01:54:29;6.00;;;5.60;;
7166;SDS011;3625;51.762;14.320;2023-07-29T01:57:00;6.43;;;5.80;;
7166;SDS011;3625;51.762;14.320;2023-07-29T01:59:30;5.93;;;5.43;;
7166;SDS011;3625;51.762;14.320;2023-07-29T02:02:07;6.20;;;5.70;;
7166;SDS011;3625;51.762;14.320;2023-07-29T02:04:35;6.60;;;6.00;;
7166;SDS011;3625;51.762;14.320;2023-07-29T02:07:09;6.28;;;5.68;;
7166;SDS011;3625;51.762;14.320;2023-07-29T02:09:40;6.15;;;5.65;;
7166;SDS011;3625;51.762;14.320;2023-07-29T02:12:15;5.78;;;5.28;;
7166;SDS011;3625;51.762;14.320;2023-07-29T02:14:57;6.32;;;5.75;;
7166;SDS011;3625;51.762;14.320;2023-07-29T02:17:41;6.72;;;6.22;;
7166;SDS011;3625;51.762;14.320;2023-07-29T02:20:13;6.90;;;6.30;;
7166;SDS011;3625;51.762;14.320;2023-07-29T02:22:44;5.60;;;5.20;;
7166;SDS011;3625;51.762;14.320;2023-07-29T02:25:26;6.47;;;5.97;;
7166;SDS011;3625;51.762;14.320;2023-07-29T02:27:57;6.38;;;5.88;;
7166;SDS011;3625;51.762;14.320;2023-07-29T02:30:29;7.22;;;6.63;;
7166;SDS011;3625;51.762;14.320;2023-07-29T02:33:02;7.13;;;6.53;;
7166;SDS011;3625;51.762;14.320;2023-07-29T02:35:31;6.93;;;6.32;;
7166;SDS011;3625;51.762;14.320;2023-07-29T02:38:02;7.03;;;6.43;;
7166;SDS011;3625;51.762;14.320;2023-07-29T02:40:31;6.38;;;5.85;;
7166;SDS011;3625;51.762;14.320;2023-07-29T02:43:02;7.05;;;6.45;;
7166;SDS011;3625;51.762;14.320;2023-07-29T02:45:35;6.80;;;6.20;;
7166;SDS011;3625;51.762;14.320;2023-07-29T02:48:09;6.50;;;5.90;;
7166;SDS011;3625;51.762;14.320;2023-07-29T02:50:40;6.22;;;5.72;;
7166;SDS011;3625;51.762;14.320;2023-07-29T02:53:09;7.13;;;6.53;;
7166;SDS011;3625;51.762;14.320;2023-07-29T02:55:48;7.05;;;6.45;;
7166;SDS011;3625;51.762;14.320;2023-07-29T02:58:19;8.00;;;6.90;;
7166;SDS011;3625;51.762;14.320;2023-07-29T03:00:51;7.00;;;6.40;;
7166;SDS011;3625;51.762;14.320;2023-07-29T03:03:27;7.13;;;6.53;;
7166;SDS011;3625;51.762;14.320;2023-07-29T03:05:58;6.30;;;5.80;;
7166;SDS011;3625;51.762;14.320;2023-07-29T03:08:31;6.70;;;6.00;;
7166;SDS011;3625;51.762;14.320;2023-07-29T03:11:04;7.13;;;6.57;;
7166;SDS011;3625;51.762;14.320;2023-07-29T03:13:39;6.30;;;5.80;;
7166;SDS011;3625;51.762;14.320;2023-07-29T03:16:15;6.50;;;5.90;;
7166;SDS011;3625;51.762;14.320;2023-07-29T03:18:57;6.13;;;5.63;;
7166;SDS011;3625;51.762;14.320;2023-07-29T03:21:38;6.03;;;5.53;;
7166;SDS011;3625;51.762;14.320;2023-07-29T03:24:09;6.35;;;5.75;;
7166;SDS011;3625;51.762;14.320;2023-07-29T03:26:38;5.72;;;5.32;;
7166;SDS011;3625;51.762;14.320;2023-07-29T03:29:12;5.15;;;4.75;;
7166;SDS011;3625;51.762;14.320;2023-07-29T03:31:48;5.65;;;5.25;;
7166;SDS011;3625;51.762;14.320;2023-07-29T03:34:20;5.82;;;5.32;;
7166;SDS011;3625;51.762;14.320;2023-07-29T03:36:52;5.93;;;5.38;;
7166;SDS011;3625;51.762;14.320;2023-07-29T03:39:23;5.85;;;5.35;;
7166;SDS011;3625;51.762;14.320;2023-07-29T03:41:51;6.05;;;5.50;;
7166;SDS011;3625;51.762;14.320;2023-07-29T03:44:22;5.63;;;4.93;;
7166;SDS011;3625;51.762;14.320;2023-07-29T03:46:55;5.93;;;5.28;;
7166;SDS011;3625;51.762;14.320;2023-07-29T03:49:23;5.70;;;5.20;;
7166;SDS011;3625;51.762;14.320;2023-07-29T03:51:54;6.15;;;5.57;;
7166;SDS011;3625;51.762;14.320;2023-07-29T03:54:23;6.03;;;5.28;;
7166;SDS011;3625;51.762;14.320;2023-07-29T03:56:52;5.32;;;4.85;;
7166;SDS011;3625;51.762;14.320;2023-07-29T03:59:20;5.40;;;4.90;;
7166;SDS011;3625;51.762;14.320;2023-07-29T04:01:49;5.93;;;5.32;;
7166;SDS011;3625;51.762;14.320;2023-07-29T04:04:21;5.40;;;4.72;;
7166;SDS011;3625;51.762;14.320;2023-07-29T04:06:51;5.20;;;4.70;;
7166;SDS011;3625;51.762;14.320;2023-07-29T04:09:19;4.55;;;4.15;;
7166;SDS011;3625;51.762;14.320;2023-07-29T04:11:48;4.68;;;4.28;;
7166;SDS011;3625;51.762;14.320;2023-07-29T04:14:19;4.60;;;4.30;;
7166;SDS011;3625;51.762;14.320;2023-07-29T04:16:48;5.93;;;4.32;;
7166;SDS011;3625;51.762;14.320;2023-07-29T04:19:21;4.25;;;3.85;;
7166;SDS011;3625;51.762;14.320;2023-07-29T04:21:49;4.15;;;3.85;;
7166;SDS011;3625;51.762;14.320;2023-07-29T04:24:20;4.18;;;3.72;;
7166;SDS011;3625;51.762;14.320;2023-07-29T04:27:00;4.10;;;3.80;;
7166;SDS011;3625;51.762;14.320;2023-07-29T04:29:31;3.45;;;3.22;;
7166;SDS011;3625;51.762;14.320;2023-07-29T04:32:02;3.92;;;3.63;;
7166;SDS011;3625;51.762;14.320;2023-07-29T04:34:33;4.70;;;3.75;;
7166;SDS011;3625;51.762;14.320;2023-07-29T04:37:07;3.63;;;3.33;;
7166;SDS011;3625;51.762;14.320;2023-07-29T04:39:48;3.50;;;3.08;;
7166;SDS011;3625;51.762;14.320;2023-07-29T04:42:19;4.35;;;3.25;;
7166;SDS011;3625;51.762;14.320;2023-07-29T04:44:52;3.40;;;3.10;;
7166;SDS011;3625;51.762;14.320;2023-07-29T04:47:21;3.50;;;3.20;;
7166;SDS011;3625;51.762;14.320;2023-07-29T04:49:56;4.30;;;3.08;;
7166;SDS011;3625;51.762;14.320;2023-07-29T04:52:28;3.60;;;3.30;;
7166;SDS011;3625;51.762;14.320;2023-07-29T04:54:57;3.30;;;3.00;;
7166;SDS011;3625;51.762;14.320;2023-07-29T04:57:28;3.30;;;3.00;;
7166;SDS011;3625;51.762;14.320;2023-07-29T04:59:56;2.78;;;2.58;;
7166;SDS011;3625;51.762;14.320;2023-07-29T05:02:27;3.88;;;3.00;;
7166;SDS011;3625;51.762;14.320;2023-07-29T05:05:01;3.70;;;3.40;;
7166;SDS011;3625;51.762;14.320;2023-07-29T05:07:32;3.00;;;2.80;;
7166;SDS011;3625;51.762;14.320;2023-07-29T05:10:04;2.97;;;2.78;;
7166;SDS011;3625;51.762;14.320;2023-07-29T05:12:40;3.15;;;2.95;;
7166;SDS011;3625;51.762;14.320;2023-07-29T05:15:11;2.92;;;2.63;;
7166;SDS011;3625;51.762;14.320;2023-07-29T05:17:46;2.80;;;2.60;;
7166;SDS011;3625;51.762;14.320;2023-07-29T05:20:16;2.92;;;2.72;;
7166;SDS011;3625;51.762;14.320;2023-07-29T05:22:48;2.72;;;2.22;;
7166;SDS011;3625;51.762;14.320;2023-07-29T05:25:25;2.70;;;2.50;;
7166;SDS011;3625;51.762;14.320;2023-07-29T05:28:01;2.67;;;2.47;;
7166;SDS011;3625;51.762;14.320;2023-07-29T05:30:33;2.78;;;2.58;;
7166;SDS011;3625;51.762;14.320;2023-07-29T05:33:09;2.30;;;2.10;;
7166;SDS011;3625;51.762;14.320;2023-07-29T05:35:41;2.83;;;2.50;;
7166;SDS011;3625;51.762;14.320;2023-07-29T05:38:10;2.70;;;2.50;;
7166;SDS011;3625;51.762;14.320;2023-07-29T05:40:41;2.40;;;2.20;;
7166;SDS011;3625;51.762;14.320;2023-07-29T05:43:14;2.42;;;2.22;;
7166;SDS011;3625;51.762;14.320;2023-07-29T05:45:45;2.50;;;2.30;;
7166;SDS011;3625;51.762;14.320;2023-07-29T05:48:19;2.33;;;2.13;;
7166;SDS011;3625;51.762;14.320;2023-07-29T05:50:59;3.63;;;2.67;;
7166;SDS011;3625;51.762;14.320;2023-07-29T05:53:34;2.10;;;2.00;;
7166;SDS011;3625;51.762;14.320;2023-07-29T05:56:05;1.90;;;1.80;;
7166;SDS011;3625;51.762;14.320;2023-07-29T05:58:35;2.00;;;1.90;;
7166;SDS011;3625;51.762;14.320;2023-07-29T06:01:08;2.28;;;2.10;;
7166;SDS011;3625;51.762;14.320;2023-07-29T06:03:46;2.10;;;2.00;;
7166;SDS011;3625;51.762;14.320;2023-07-29T06:06:16;2.05;;;1.85;;
7166;SDS011;3625;51.762;14.320;2023-07-29T06:08:45;2.13;;;1.92;;
7166;SDS011;3625;51.762;14.320;2023-07-29T06:11:14;1.77;;;1.67;;
7166;SDS011;3625;51.762;14.320;2023-07-29T06:13:45;2.58;;;2.03;;
7166;SDS011;3625;51.762;14.320;2023-07-29T06:16:15;1.75;;;1.65;;
7166;SDS011;3625;51.762;14.320;2023-07-29T06:18:46;2.20;;;2.00;;
7166;SDS011;3625;51.762;14.320;2023-07-29T06:21:27;2.10;;;2.00;;
7166;SDS011;3625;51.762;14.320;2023-07-29T06:23:55;1.90;;;1.80;;
7166;SDS011;3625;51.762;14.320;2023-07-29T06:26:26;2.22;;;2.10;;
7166;SDS011;3625;51.762;14.320;2023-07-29T06:28:55;2.00;;;1.90;;
7166;SDS011;3625;51.762;14.320;2023-07-29T06:31:26;2.28;;;2.08;;
7166;SDS011;3625;51.762;14.320;2023-07-29T06:34:02;2.00;;;1.90;;
7166;SDS011;3625;51.762;14.320;2023-07-29T06:36:33;1.70;;;1.60;;
7166;SDS011;3625;51.762;14.320;2023-07-29T06:39:02;2.22;;;2.08;;
7166;SDS011;3625;51.762;14.320;2023-07-29T06:41:31;1.90;;;1.65;;
7166;SDS011;3625;51.762;14.320;2023-07-29T06:44:03;2.08;;;1.90;;
7166;SDS011;3625;51.762;14.320;2023-07-29T06:46:32;1.73;;;1.63;;
7166;SDS011;3625;51.762;14.320;2023-07-29T06:49:01;2.00;;;1.90;;
7166;SDS011;3625;51.762;14.320;2023-07-29T06:51:30;2.55;;;1.80;;
7166;SDS011;3625;51.762;14.320;2023-07-29T06:54:13;2.53;;;1.90;;
7166;SDS011;3625;51.762;14.320;2023-07-29T06:56:47;1.63;;;1.52;;
7166;SDS011;3625;51.762;14.320;2023-07-29T06:59:18;2.10;;;1.90;;
7166;SDS011;3625;51.762;14.320;2023-07-29T07:01:52;1.85;;;1.75;;
7166;SDS011;3625;51.762;14.320;2023-07-29T07:04:25;2.10;;;1.80;;
7166;SDS011;3625;51.762;14.320;2023-07-29T07:06:56;1.75;;;1.65;;
7166;SDS011;3625;51.762;14.320;2023-07-29T07:09:29;1.85;;;1.60;;
7166;SDS011;3625;51.762;14.320;2023-07-29T07:11:58;1.80;;;1.70;;
7166;SDS011;3625;51.762;14.320;2023-07-29T07:14:26;1.92;;;1.63;;
7166;SDS011;3625;51.762;14.320;2023-07-29T07:16:55;1.95;;;1.50;;
7166;SDS011;3625;51.762;14.320;2023-07-29T07:19:23;3.05;;;1.42;;
7166;SDS011;3625;51.762;14.320;2023-07-29T07:21:52;1.40;;;1.23;;
7166;SDS011;3625;51.762;14.320;2023-07-29T07:24:20;1.83;;;1.70;;
7166;SDS011;3625;51.762;14.320;2023-07-29T07:26:51;1.40;;;1.30;;
7166;SDS011;3625;51.762;14.320;2023-07-29T07:29:19;3.75;;;2.00;;
7166;SDS011;3625;51.762;14.320;2023-07-29T07:31:49;3.05;;;2.08;;
7166;SDS011;3625;51.762;14.320;2023-07-29T07:34:24;2.85;;;2.00;;
7166;SDS011;3625;51.762;14.320;2023-07-29T07:36:52;3.30;;;1.73;;
7166;SDS011;3625;51.762;14.320;2023-07-29T07:39:21;1.40;;;1.30;;
7166;SDS011;3625;51.762;14.320;2023-07-29T07:41:51;1.40;;;1.30;;
7166;SDS011;3625;51.762;14.320;2023-07-29T07:44:20;1.38;;;1.27;;
7166;SDS011;3625;51.762;14.320;2023-07-29T07:46:50;1.23;;;1.00;;
7166;SDS011;3625;51.762;14.320;2023-07-29T07:49:19;1.65;;;1.20;;
7166;SDS011;3625;51.762;14.320;2023-07-29T07:51:52;1.40;;;1.30;;
7166;SDS011;3625;51.762;14.320;2023-07-29T07:54:23;2.10;;;1.15;;
7166;SDS011;3625;51.762;14.320;2023-07-29T07:56:53;1.35;;;1.25;;
7166;SDS011;3625;51.762;14.320;2023-07-29T07:59:22;1.40;;;1.30;;
7166;SDS011;3625;51.762;14.320;2023-07-29T08:01:50;1.55;;;1.10;;
7166;SDS011;3625;51.762;14.320;2023-07-29T08:04:19;2.33;;;1.40;;
7166;SDS011;3625;51.762;14.320;2023-07-29T08:06:48;1.48;;;1.33;;
7166;SDS011;3625;51.762;14.320;2023-07-29T08:09:19;1.33;;;1.23;;
7166;SDS011;3625;51.762;14.320;2023-07-29T08:12:00;1.40;;;1.00;;
7166;SDS011;3625;51.762;14.320;2023-07-29T08:14:34;1.45;;;1.10;;
7166;SDS011;3625;51.762;14.320;2023-07-29T08:17:11;1.55;;;1.27;;
7166;SDS011;3625;51.762;14.320;2023-07-29T08:19:40;2.67;;;1.20;;
7166;SDS011;3625;51.762;14.320;2023-07-29T08:22:10;1.20;;;1.10;;
7166;SDS011;3625;51.762;14.320;2023-07-29T08:24:40;1.30;;;1.20;;
7166;SDS011;3625;51.762;14.320;2023-07-29T08:27:10;1.00;;;1.00;;
7166;SDS011;3625;51.762;14.320;2023-07-29T08:29:39;1.50;;;1.05;;
7166;SDS011;3625;51.762;14.320;2023-07-29T08:32:09;1.63;;;1.25;;
7166;SDS011;3625;51.762;14.320;2023-07-29T08:34:38;0.90;;;0.90;;
7166;SDS011;3625;51.762;14.320;2023-07-29T08:37:07;1.77;;;1.35;;
7166;SDS011;3625;51.762;14.320;2023-07-29T08:39:39;1.13;;;1.00;;
7166;SDS011;3625;51.762;14.320;2023-07-29T08:42:12;2.65;;;1.30;;
7166;SDS011;3625;51.762;14.320;2023-07-29T08:44:46;2.28;;;1.40;;
7166;SDS011;3625;51.762;14.320;2023-07-29T08:47:20;1.13;;;1.02;;
7166;SDS011;3625;51.762;14.320;2023-07-29T08:49:49;1.20;;;1.10;;
7166;SDS011;3625;51.762;14.320;2023-07-29T08:52:29;1.27;;;1.10;;
7166;SDS011;3625;51.762;14.320;2023-07-29T08:55:01;1.27;;;1.00;;
7166;SDS011;3625;51.762;14.320;2023-07-29T08:57:54;1.35;;;1.25;;
7166;SDS011;3625;51.762;14.320;2023-07-29T09:00:29;1.35;;;1.00;;
7166;SDS011;3625;51.762;14.320;2023-07-29T09:03:00;1.20;;;1.10;;
7166;SDS011;3625;51.762;14.320;2023-07-29T09:05:37;1.63;;;1.15;;
7166;SDS011;3625;51.762;14.320;2023-07-29T09:08:07;1.08;;;0.90;;
7166;SDS011;3625;51.762;14.320;2023-07-29T09:10:39;1.10;;;1.00;;
7166;SDS011;3625;51.762;14.320;2023-07-29T09:13:14;1.30;;;1.08;;
7166;SDS011;3625;51.762;14.320;2023-07-29T09:15:45;1.17;;;1.08;;
7166;SDS011;3625;51.762;14.320;2023-07-29T09:18:14;1.13;;;1.02;;
7166;SDS011;3625;51.762;14.320;2023-07-29T09:20:49;2.05;;;1.10;;
7166;SDS011;3625;51.762;14.320;2023-07-29T09:23:20;1.95;;;1.08;;
7166;SDS011;3625;51.762;14.320;2023-07-29T09:25:50;1.20;;;1.10;;
7166;SDS011;3625;51.762;14.320;2023-07-29T09:28:33;1.58;;;1.00;;
7166;SDS011;3625;51.762;14.320;2023-07-29T09:31:04;0.98;;;0.93;;
7166;SDS011;3625;51.762;14.320;2023-07-29T09:33:33;1.15;;;1.05;;
7166;SDS011;3625;51.762;14.320;2023-07-29T09:36:08;1.10;;;1.00;;
7166;SDS011;3625;51.762;14.320;2023-07-29T09:38:44;1.13;;;1.02;;
7166;SDS011;3625;51.762;14.320;2023-07-29T09:41:15;1.00;;;1.00;;
7166;SDS011;3625;51.762;14.320;2023-07-29T09:43:45;1.40;;;1.20;;
7166;SDS011;3625;51.762;14.320;2023-07-29T09:46:13;1.60;;;0.90;;
7166;SDS011;3625;51.762;14.320;2023-07-29T09:48:42;1.73;;;1.00;;
7166;SDS011;3625;51.762;14.320;2023-07-29T09:51:14;1.13;;;1.05;;
7166;SDS011;3625;51.762;14.320;2023-07-29T09:53:44;1.10;;;1.00;;
7166;SDS011;3625;51.762;14.320;2023-07-29T09:56:14;1.08;;;0.98;;
7166;SDS011;3625;51.762;14.320;2023-07-29T09:58:45;1.35;;;1.00;;
7166;SDS011;3625;51.762;14.320;2023-07-29T10:01:16;1.13;;;0.93;;
7166;SDS011;3625;51.762;14.320;2023-07-29T10:03:46;1.00;;;0.90;;
7166;SDS011;3625;51.762;14.320;2023-07-29T10:06:16;0.98;;;0.90;;
7166;SDS011;3625;51.762;14.320;2023-07-29T10:08:48;1.10;;;1.00;;
7166;SDS011;3625;51.762;14.320;2023-07-29T10:11:19;1.55;;;1.02;;
7166;SDS011;3625;51.762;14.320;2023-07-29T10:13:53;1.42;;;1.33;;
7166;SDS011;3625;51.762;14.320;2023-07-29T10:16:34;1.27;;;1.17;;
7166;SDS011;3625;51.762;14.320;2023-07-29T10:19:07;1.13;;;1.10;;
7166;SDS011;3625;51.762;14.320;2023-07-29T10:21:38;1.00;;;0.90;;
7166;SDS011;3625;51.762;14.320;2023-07-29T10:24:14;1.80;;;1.05;;
7166;SDS011;3625;51.762;14.320;2023-07-29T10:27:13;1.20;;;1.10;;
7166;SDS011;3625;51.762;14.320;2023-07-29T10:29:51;1.38;;;1.27;;
7166;SDS011;3625;51.762;14.320;2023-07-29T10:32:27;1.75;;;1.15;;
7166;SDS011;3625;51.762;14.320;2023-07-29T10:35:01;1.75;;;1.10;;
7166;SDS011;3625;51.762;14.320;2023-07-29T10:37:30;1.83;;;1.00;;
7166;SDS011;3625;51.762;14.320;2023-07-29T10:39:59;1.98;;;1.00;;
7166;SDS011;3625;51.762;14.320;2023-07-29T10:42:34;1.25;;;1.15;;
7166;SDS011;3625;51.762;14.320;2023-07-29T10:45:18;1.15;;;1.10;;
7166;SDS011;3625;51.762;14.320;2023-07-29T10:47:49;1.13;;;1.00;;
7166;SDS011;3625;51.762;14.320;2023-07-29T10:50:22;1.52;;;1.40;;
7166;SDS011;3625;51.762;14.320;2023-07-29T10:52:55;1.10;;;1.00;;
7166;SDS011;3625;51.762;14.320;2023-07-29T10:55:25;1.17;;;1.08;;
7166;SDS011;3625;51.762;14.320;2023-07-29T10:58:07;1.90;;;1.13;;
7166;SDS011;3625;51.762;14.320;2023-07-29T11:00:46;1.30;;;1.08;;
7166;SDS011;3625;51.762;14.320;2023-07-29T11:03:17;1.08;;;1.08;;
7166;SDS011;3625;51.762;14.320;2023-07-29T11:05:51;1.20;;;1.10;;
7166;SDS011;3625;51.762;14.320;2023-07-29T11:08:27;1.08;;;0.98;;
7166;SDS011;3625;51.762;14.320;2023-07-29T11:11:02;1.00;;;0.90;;
7166;SDS011;3625;51.762;14.320;2023-07-29T11:13:47;1.20;;;1.10;;
7166;SDS011;3625;51.762;14.320;2023-07-29T11:16:21;1.63;;;0.98;;
7166;SDS011;3625;51.762;14.320;2023-07-29T11:18:52;1.83;;;1.05;;
7166;SDS011;3625;51.762;14.320;2023-07-29T11:21:23;1.50;;;1.00;;
7166;SDS011;3625;51.762;14.320;2023-07-29T11:24:08;1.80;;;0.90;;
7166;SDS011;3625;51.762;14.320;2023-07-29T11:26:57;1.20;;;1.10;;
7166;SDS011;3625;51.762;14.320;2023-07-29T11:29:33;1.20;;;1.10;;
7166;SDS011;3625;51.762;14.320;2023-07-29T11:32:03;0.85;;;0.85;;
7166;SDS011;3625;51.762;14.320;2023-07-29T11:34:38;0.98;;;0.88;;
7166;SDS011;3625;51.762;14.320;2023-07-29T11:37:11;1.73;;;0.90;;
7166;SDS011;3625;51.762;14.320;2023-07-29T11:39:42;0.98;;;0.88;;
7166;SDS011;3625;51.762;14.320;2023-07-29T11:42:24;1.13;;;1.02;;
7166;SDS011;3625;51.762;14.320;2023-07-29T11:45:11;1.10;;;1.00;;
7166;SDS011;3625;51.762;14.320;2023-07-29T11:47:51;1.10;;;1.00;;
7166;SDS011;3625;51.762;14.320;2023-07-29T11:50:23;0.93;;;0.90;;
7166;SDS011;3625;51.762;14.320;2023-07-29T11:52:53;1.23;;;1.13;;
7166;SDS011;3625;51.762;14.320;2023-07-29T11:55:24;0.80;;;0.80;;
7166;SDS011;3625;51.762;14.320;2023-07-29T11:57:53;1.00;;;0.75;;
7166;SDS011;3625;51.762;14.320;2023-07-29T12:00:22;0.90;;;0.90;;
7166;SDS011;3625;51.762;14.320;2023-07-29T12:02:52;1.58;;;1.00;;
7166;SDS011;3625;51.762;14.320;2023-07-29T12:05:22;0.93;;;0.93;;
7166;SDS011;3625;51.762;14.320;2023-07-29T12:07:52;1.23;;;1.02;;
7166;SDS011;3625;51.762;14.320;2023-07-29T12:10:23;0.85;;;0.85;;
7166;SDS011;3625;51.762;14.320;2023-07-29T12:12:58;0.90;;;0.90;;
7166;SDS011;3625;51.762;14.320;2023-07-29T12:15:30;1.05;;;0.93;;
7166;SDS011;3625;51.762;14.320;2023-07-29T12:18:00;1.10;;;1.00;;
7166;SDS011;3625;51.762;14.320;2023-07-29T12:20:29;1.20;;;1.10;;
7166;SDS011;3625;51.762;14.320;2023-07-29T12:22:58;1.83;;;1.30;;
7166;SDS011;3625;51.762;14.320;2023-07-29T12:25:29;0.98;;;0.98;;
7166;SDS011;3625;51.762;14.320;2023-07-29T12:28:01;0.98;;;0.90;;
7166;SDS011;3625;51.762;14.320;2023-07-29T12:30:31;1.77;;;1.10;;
7166;SDS011;3625;51.762;14.320;2023-07-29T12:33:01;1.20;;;1.10;;
7166;SDS011;3625;51.762;14.320;2023-07-29T12:35:34;1.17;;;1.08;;
7166;SDS011;3625;51.762;14.320;2023-07-29T12:38:04;1.55;;;1.20;;
7166;SDS011;3625;51.762;14.320;2023-07-29T12:40:37;1.10;;;1.00;;
7166;SDS011;3625;51.762;14.320;2023-07-29T12:43:08;1.10;;;1.00;;
7166;SDS011;3625;51.762;14.320;2023-07-29T12:45:37;0.95;;;0.95;;
7166;SDS011;3625;51.762;14.320;2023-07-29T12:48:09;1.10;;;1.00;;
7166;SDS011;3625;51.762;14.320;2023-07-29T12:50:39;1.05;;;1.05;;
7166;SDS011;3625;51.762;14.320;2023-07-29T12:53:08;1.48;;;1.20;;
7166;SDS011;3625;51.762;14.320;2023-07-29T12:55:37;2.15;;;1.20;;
7166;SDS011;3625;51.762;14.320;2023-07-29T12:58:06;1.38;;;1.10;;
7166;SDS011;3625;51.762;14.320;2023-07-29T13:00:34;2.05;;;1.10;;
7166;SDS011;3625;51.762;14.320;2023-07-29T13:03:03;1.58;;;1.30;;
7166;SDS011;3625;51.762;14.320;2023-07-29T13:05:34;1.92;;;1.08;;
7166;SDS011;3625;51.762;14.320;2023-07-29T13:08:02;1.25;;;1.15;;
7166;SDS011;3625;51.762;14.320;2023-07-29T13:10:31;2.20;;;1.40;;
7166;SDS011;3625;51.762;14.320;2023-07-29T13:12:59;1.20;;;1.10;;
7166;SDS011;3625;51.762;14.320;2023-07-29T13:15:28;0.90;;;0.90;;
7166;SDS011;3625;51.762;14.320;2023-07-29T13:17:58;1.77;;;1.02;;
7166;SDS011;3625;51.762;14.320;2023-07-29T13:20:28;1.10;;;0.98;;
7166;SDS011;3625;51.762;14.320;2023-07-29T13:22:58;1.10;;;0.90;;
7166;SDS011;3625;51.762;14.320;2023-07-29T13:25:26;1.23;;;1.13;;
7166;SDS011;3625;51.762;14.320;2023-07-29T13:27:55;1.20;;;1.08;;
7166;SDS011;3625;51.762;14.320;2023-07-29T13:30:23;0.90;;;0.90;;
7166;SDS011;3625;51.762;14.320;2023-07-29T13:32:52;0.98;;;0.98;;
7166;SDS011;3625;51.762;14.320;2023-07-29T13:35:21;1.00;;;0.90;;
7166;SDS011;3625;51.762;14.320;2023-07-29T13:37:49;1.00;;;0.93;;
7166;SDS011;3625;51.762;14.320;2023-07-29T13:40:19;1.50;;;0.93;;
7166;SDS011;3625;51.762;14.320;2023-07-29T13:42:48;0.95;;;0.90;;
7166;SDS011;3625;51.762;14.320;2023-07-29T13:45:16;0.95;;;0.90;;
7166;SDS011;3625;51.762;14.320;2023-07-29T13:47:45;1.02;;;0.70;;
7166;SDS011;3625;51.762;14.320;2023-07-29T13:50:14;1.48;;;0.90;;
7166;SDS011;3625;51.762;14.320;2023-07-29T13:52:46;0.80;;;0.80;;
7166;SDS011;3625;51.762;14.320;2023-07-29T13:55:14;0.90;;;0.90;;
7166;SDS011;3625;51.762;14.320;2023-07-29T13:57:44;2.03;;;0.98;;
7166;SDS011;3625;51.762;14.320;2023-07-29T14:00:14;1.30;;;1.00;;
7166;SDS011;3625;51.762;14.320;2023-07-29T14:02:42;1.52;;;1.20;;
7166;SDS011;3625;51.762;14.320;2023-07-29T14:05:11;2.75;;;1.38;;
7166;SDS011;3625;51.762;14.320;2023-07-29T14:07:41;1.27;;;1.10;;
7166;SDS011;3625;51.762;14.320;2023-07-29T14:10:09;1.70;;;1.20;;
7166;SDS011;3625;51.762;14.320;2023-07-29T14:12:37;1.75;;;1.30;;
7166;SDS011;3625;51.762;14.320;2023-07-29T14:15:08;1.40;;;1.30;;
7166;SDS011;3625;51.762;14.320;2023-07-29T14:17:37;1.40;;;1.30;;
7166;SDS011;3625;51.762;14.320;2023-07-29T14:20:06;1.27;;;1.17;;
7166;SDS011;3625;51.762;14.320;2023-07-29T14:22:36;1.52;;;1.30;;
7166;SDS011;3625;51.762;14.320;2023-07-29T14:25:05;1.45;;;1.35;;
7166;SDS011;3625;51.762;14.320;2023-07-29T14:27:35;1.45;;;1.35;;
7166;SDS011;3625;51.762;14.320;2023-07-29T14:30:04;3.15;;;1.40;;
7166;SDS011;3625;51.762;14.320;2023-07-29T14:32:35;1.58;;;1.40;;
7166;SDS011;3625;51.762;14.320;2023-07-29T14:35:05;1.83;;;1.60;;
7166;SDS011;3625;51.762;14.320;2023-07-29T14:37:34;1.30;;;1.20;;
7166;SDS011;3625;51.762;14.320;2023-07-29T14:40:04;2.00;;;1.27;;
7166;SDS011;3625;51.762;14.320;2023-07-29T14:42:34;1.48;;;1.10;;
7166;SDS011;3625;51.762;14.320;2023-07-29T14:45:03;3.15;;;1.33;;
7166;SDS011;3625;51.762;14.320;2023-07-29T14:47:33;1.60;;;1.50;;
7166;SDS011;3625;51.762;14.320;2023-07-29T14:50:03;4.40;;;1.40;;
7166;SDS011;3625;51.762;14.320;2023-07-29T14:52:32;2.13;;;1.40;;
7166;SDS011;3625;51.762;14.320;2023-07-29T14:55:01;3.47;;;1.67;;
7166;SDS011;3625;51.762;14.320;2023-07-29T14:57:32;3.05;;;1.67;;
7166;SDS011;3625;51.762;14.320;2023-07-29T15:00:01;3.85;;;2.00;;
7166;SDS011;3625;51.762;14.320;2023-07-29T15:02:31;2.15;;;1.70;;
7166;SDS011;3625;51.762;14.320;2023-07-29T15:04:59;3.13;;;1.67;;
7166;SDS011;3625;51.762;14.320;2023-07-29T15:07:29;2.40;;;1.67;;
7166;SDS011;3625;51.762;14.320;2023-07-29T15:09:58;2.88;;;1.55;;
7166;SDS011;3625;51.762;14.320;2023-07-29T15:12:26;2.47;;;1.65;;
7166;SDS011;3625;51.762;14.320;2023-07-29T15:15:01;3.08;;;1.63;;
7166;SDS011;3625;51.762;14.320;2023-07-29T15:17:30;2.22;;;1.33;;
7166;SDS011;3625;51.762;14.320;2023-07-29T15:20:01;3.75;;;1.70;;
7166;SDS011;3625;51.762;14.320;2023-07-29T15:22:34;3.10;;;1.88;;
7166;SDS011;3625;51.762;14.320;2023-07-29T15:25:03;1.90;;;1.63;;
7166;SDS011;3625;51.762;14.320;2023-07-29T15:27:32;3.83;;;1.60;;
7166;SDS011;3625;51.762;14.320;2023-07-29T15:30:05;1.63;;;1.52;;